Airfield :
LOGIN :

Register | Disclaimer

   EN    FR    IT 

 










Legend :    VFR   Marginal VFR   IFR   Intensive IFR   Very Intensive IFR
Visi :
Ceiling :
>= 8 km
>= 3000ft
5 to 8 km
1000 to 3000 ft
1500m to 5 km
500 to 1000 ft
800 to 1500m
200 to 500 ft
< 800m
< 200 ft
Symbols :   Thunderstorms  Fog  Heavy snow  Heavy precipitations  Wind > 20 kt
SIGMETs :     Misc.  Thunderstorms  Icing  Turbulence  Mountain Waves  Volcanic Ashes







- Airport Elevation : 6 ft
- IATA code : CFU


LGKR - Corfu Kerkyra

CURRENT METAR :
  • 171450Z 13007KT 9999 FEW008 28/25 Q1007 NOSIG

EXPIRED METARs :
  • 171420Z 13008KT 9999 FEW010 29/25 Q1007 NOSIG
  • 171350Z 14010KT 9999 FEW010 29/25 Q1007 NOSIG
  • 171320Z 14010KT 9999 FEW011 SCT018 29/25 Q1007 NOSIG
  • 171250Z 11012KT 9999 FEW014 SCT020 28/25 Q1007 TEMPO BKN018
  • 171220Z 15014KT 9999 FEW014 SCT020 29/26 Q1008 TEMPO BKN018

TAF TAF LGKR
Valid from the 17 at 12:00 until the 18 at 12:00 UTC


171100Z 1712/1812 13014KT 9999 FEW025 SCT080
PROB30
TEMPO 1712/1716 5000 SHRA FEW018CB SCT020 BKN070
BECMG 1718/1720 34015KT
No reported NOTAMs for that airfield.
1 SIGMET reported for the Athinai FIR (LGGG) :
 
Embedded thunderstorms
LGGG SIGMET 2 VALID 171500/171700 LGAT
LGGG ATHINAI FIR/UIR EMBD TS OBS N OF N4000 AND E OF E02200 STNR INTSF=



MET'MAP, your aeronautical weather chart ! - Copyright ORBIFLY December 2007 - Disclaimer

ORBIFLY MET'MAP TEAM :

Programming & Development : Alexandra Zaïnal
Concept & Development : Baudouin d'Aumeries
Co-Development & Prog : Marc-Olivier Méhu
Technical & hardware support : Manuel Goepfert

Contact : metmap@orbifly.com




SOURCES & CREDITS :

   NOAA